sensor_id;sensor_type;location;lat;lon;timestamp;pressure;altitude;pressure_sealevel;temperature;humidity
18022;BME280;9136;48.822;7.966;2023-04-15T04:47:20;99309.66;;;1.65;100.00
18022;BME280;9136;48.822;7.966;2023-04-15T04:50:08;99289.09;;;1.51;100.00
18022;BME280;9136;48.822;7.966;2023-04-15T04:52:56;99296.03;;;1.49;100.00
18022;BME280;9136;48.822;7.966;2023-04-15T04:55:44;99291.72;;;1.48;100.00
18022;BME280;9136;48.822;7.966;2023-04-15T04:58:32;99304.66;;;1.48;100.00
18022;BME280;9136;48.822;7.966;2023-04-15T05:01:21;99305.47;;;1.55;100.00
18022;BME280;9136;48.822;7.966;2023-04-15T05:04:10;99314.91;;;1.59;100.00
18022;BME280;9136;48.822;7.966;2023-04-15T05:06:58;99292.56;;;1.50;100.00
18022;BME280;9136;48.822;7.966;2023-04-15T05:09:46;99298.53;;;1.57;100.00
18022;BME280;9136;48.822;7.966;2023-04-15T05:12:34;99319.88;;;1.76;100.00
18022;BME280;9136;48.822;7.966;2023-04-15T05:15:22;99323.25;;;1.84;100.00
18022;BME280;9136;48.822;7.966;2023-04-15T05:18:10;99312.16;;;1.71;100.00
18022;BME280;9136;48.822;7.966;2023-04-15T05:21:01;99300.28;;;1.52;100.00
18022;BME280;9136;48.822;7.966;2023-04-15T05:23:49;99330.16;;;1.82;100.00
18022;BME280;9136;48.822;7.966;2023-04-15T05:26:37;99330.03;;;1.94;100.00
18022;BME280;9136;48.822;7.966;2023-04-15T05:29:25;99337.50;;;2.17;100.00
18022;BME280;9136;48.822;7.966;2023-04-15T05:32:13;99326.91;;;2.35;100.00
18022;BME280;9136;48.822;7.966;2023-04-15T05:35:01;99305.09;;;2.48;100.00
18022;BME280;9136;48.822;7.966;2023-04-15T05:37:50;99323.59;;;2.82;100.00
18022;BME280;9136;48.822;7.966;2023-04-15T05:40:37;99316.41;;;3.00;100.00
18022;BME280;9136;48.822;7.966;2023-04-15T05:43:25;99351.03;;;3.48;100.00
18022;BME280;9136;48.822;7.966;2023-04-15T05:46:13;99310.31;;;3.50;100.00
18022;BME280;9136;48.822;7.966;2023-04-15T05:49:01;99308.28;;;3.67;100.00
18022;BME280;9136;48.822;7.966;2023-04-15T05:51:49;99311.38;;;3.86;100.00
18022;BME280;9136;48.822;7.966;2023-04-15T05:54:38;99317.97;;;4.01;100.00
18022;BME280;9136;48.822;7.966;2023-04-15T05:57:26;99319.25;;;4.22;100.00
18022;BME280;9136;48.822;7.966;2023-04-15T06:00:14;99337.72;;;4.50;100.00
18022;BME280;9136;48.822;7.966;2023-04-15T06:03:02;99310.03;;;4.47;100.00
18022;BME280;9136;48.822;7.966;2023-04-15T06:05:51;99325.06;;;4.73;100.00
18022;BME280;9136;48.822;7.966;2023-04-15T06:08:39;99315.25;;;4.84;100.00
18022;BME280;9136;48.822;7.966;2023-04-15T06:11:28;99333.00;;;5.04;100.00
18022;BME280;9136;48.822;7.966;2023-04-15T06:14:16;99329.09;;;5.21;100.00
18022;BME280;9136;48.822;7.966;2023-04-15T06:17:04;99358.78;;;5.47;100.00
18022;BME280;9136;48.822;7.966;2023-04-15T06:19:52;99329.41;;;5.42;100.00
18022;BME280;9136;48.822;7.966;2023-04-15T06:22:41;99350.34;;;5.72;100.00
18022;BME280;9136;48.822;7.966;2023-04-15T06:25:28;99343.22;;;5.77;100.00
18022;BME280;9136;48.822;7.966;2023-04-15T06:28:18;99347.00;;;5.99;100.00
18022;BME280;9136;48.822;7.966;2023-04-15T06:31:05;99364.66;;;6.21;100.00
18022;BME280;9136;48.822;7.966;2023-04-15T06:33:53;99349.75;;;6.24;100.00
18022;BME280;9136;48.822;7.966;2023-04-15T06:36:41;99348.06;;;6.23;100.00
18022;BME280;9136;48.822;7.966;2023-04-15T06:39:29;99354.91;;;6.27;100.00
18022;BME280;9136;48.822;7.966;2023-04-15T06:42:17;99362.31;;;6.41;100.00
18022;BME280;9136;48.822;7.966;2023-04-15T06:45:08;99362.75;;;6.55;100.00
18022;BME280;9136;48.822;7.966;2023-04-15T06:47:56;99356.16;;;6.44;100.00
18022;BME280;9136;48.822;7.966;2023-04-15T06:50:43;99344.41;;;6.58;100.00
18022;BME280;9136;48.822;7.966;2023-04-15T06:53:31;99350.25;;;6.67;100.00
18022;BME280;9136;48.822;7.966;2023-04-15T06:56:20;99332.84;;;6.67;100.00
18022;BME280;9136;48.822;7.966;2023-04-15T06:59:08;99352.19;;;6.88;100.00
18022;BME280;9136;48.822;7.966;2023-04-15T07:01:58;99356.41;;;6.92;100.00
18022;BME280;9136;48.822;7.966;2023-04-15T07:04:46;99340.03;;;6.87;100.00
18022;BME280;9136;48.822;7.966;2023-04-15T07:07:34;99336.47;;;6.89;100.00
18022;BME280;9136;48.822;7.966;2023-04-15T07:10:22;99335.31;;;6.98;100.00
18022;BME280;9136;48.822;7.966;2023-04-15T07:13:10;99349.38;;;7.21;100.00
18022;BME280;9136;48.822;7.966;2023-04-15T07:15:58;99340.28;;;7.32;100.00
18022;BME280;9136;48.822;7.966;2023-04-15T07:18:47;99347.56;;;7.49;100.00
18022;BME280;9136;48.822;7.966;2023-04-15T07:21:35;99334.44;;;7.51;100.00
18022;BME280;9136;48.822;7.966;2023-04-15T07:24:23;99363.50;;;7.66;100.00
18022;BME280;9136;48.822;7.966;2023-04-15T07:27:12;99349.72;;;7.63;100.00
18022;BME280;9136;48.822;7.966;2023-04-15T07:29:59;99335.63;;;7.67;100.00
18022;BME280;9136;48.822;7.966;2023-04-15T07:32:47;99358.19;;;7.94;100.00
18022;BME280;9136;48.822;7.966;2023-04-15T07:35:37;99356.81;;;8.08;100.00
18022;BME280;9136;48.822;7.966;2023-04-15T07:38:25;99348.75;;;8.14;100.00
18022;BME280;9136;48.822;7.966;2023-04-15T07:41:12;99359.53;;;8.28;100.00
18022;BME280;9136;48.822;7.966;2023-04-15T07:44:01;99344.19;;;8.19;100.00
18022;BME280;9136;48.822;7.966;2023-04-15T07:46:49;99345.31;;;8.37;100.00
18022;BME280;9136;48.822;7.966;2023-04-15T07:49:37;99356.97;;;8.51;100.00
18022;BME280;9136;48.822;7.966;2023-04-15T07:52:26;99337.44;;;8.37;100.00
18022;BME280;9136;48.822;7.966;2023-04-15T07:55:14;99362.06;;;8.54;100.00
18022;BME280;9136;48.822;7.966;2023-04-15T07:58:04;99361.66;;;8.65;100.00
18022;BME280;9136;48.822;7.966;2023-04-15T08:00:52;99349.56;;;8.84;100.00
18022;BME280;9136;48.822;7.966;2023-04-15T08:03:41;99375.88;;;9.03;100.00
18022;BME280;9136;48.822;7.966;2023-04-15T08:06:29;99373.94;;;9.08;100.00
18022;BME280;9136;48.822;7.966;2023-04-15T08:09:19;99366.72;;;9.13;100.00
18022;BME280;9136;48.822;7.966;2023-04-15T08:12:09;99379.16;;;9.30;100.00
18022;BME280;9136;48.822;7.966;2023-04-15T08:14:59;99380.34;;;9.43;100.00
18022;BME280;9136;48.822;7.966;2023-04-15T08:17:47;99371.56;;;9.65;100.00
18022;BME280;9136;48.822;7.966;2023-04-15T08:20:35;99383.50;;;9.92;100.00
18022;BME280;9136;48.822;7.966;2023-04-15T08:23:23;99384.09;;;9.99;100.00
18022;BME280;9136;48.822;7.966;2023-04-15T08:26:15;99374.53;;;9.98;100.00
18022;BME280;9136;48.822;7.966;2023-04-15T08:29:10;99403.06;;;10.26;100.00
18022;BME280;9136;48.822;7.966;2023-04-15T08:32:13;99388.41;;;10.20;100.00
18022;BME280;9136;48.822;7.966;2023-04-15T08:35:01;99388.38;;;10.41;99.90
18022;BME280;9136;48.822;7.966;2023-04-15T08:37:49;99407.94;;;10.54;100.00
18022;BME280;9136;48.822;7.966;2023-04-15T08:40:40;99395.25;;;10.64;100.00
18022;BME280;9136;48.822;7.966;2023-04-15T08:43:33;99395.09;;;10.85;99.16
18022;BME280;9136;48.822;7.966;2023-04-15T08:46:23;99384.19;;;11.12;94.62
18022;BME280;9136;48.822;7.966;2023-04-15T08:49:11;99377.72;;;11.36;90.32
18022;BME280;9136;48.822;7.966;2023-04-15T08:52:02;99396.78;;;11.59;90.88
18022;BME280;9136;48.822;7.966;2023-04-15T08:54:50;99383.25;;;11.49;89.11
18022;BME280;9136;48.822;7.966;2023-04-15T08:57:40;99413.34;;;11.78;89.03
18022;BME280;9136;48.822;7.966;2023-04-15T09:00:30;99390.81;;;11.72;78.42
18022;BME280;9136;48.822;7.966;2023-04-15T09:03:19;99393.00;;;12.32;77.55
18022;BME280;9136;48.822;7.966;2023-04-15T09:06:09;99405.09;;;12.36;84.40
18022;BME280;9136;48.822;7.966;2023-04-15T09:08:56;99381.63;;;12.65;73.94
18022;BME280;9136;48.822;7.966;2023-04-15T09:11:44;99391.31;;;12.96;78.00
18022;BME280;9136;48.822;7.966;2023-04-15T09:14:32;99396.94;;;13.21;67.83
18022;BME280;9136;48.822;7.966;2023-04-15T09:17:24;99395.19;;;13.52;72.29
18022;BME280;9136;48.822;7.966;2023-04-15T09:20:14;99400.78;;;13.61;66.64
18022;BME280;9136;48.822;7.966;2023-04-15T09:23:11;99389.81;;;13.23;58.94
18022;BME280;9136;48.822;7.966;2023-04-15T09:25:59;99399.22;;;13.43;61.03
18022;BME280;9136;48.822;7.966;2023-04-15T09:28:48;99410.72;;;13.42;57.07
18022;BME280;9136;48.822;7.966;2023-04-15T09:31:36;99409.31;;;13.51;59.74
18022;BME280;9136;48.822;7.966;2023-04-15T09:34:34;99406.72;;;13.65;56.72
18022;BME280;9136;48.822;7.966;2023-04-15T09:37:34;99409.50;;;13.78;65.64
18022;BME280;9136;48.822;7.966;2023-04-15T09:40:33;99406.06;;;13.61;59.46
18022;BME280;9136;48.822;7.966;2023-04-15T09:43:21;99413.59;;;13.67;58.39
18022;BME280;9136;48.822;7.966;2023-04-15T09:46:09;99403.53;;;13.44;61.56
18022;BME280;9136;48.822;7.966;2023-04-15T09:49:06;99403.66;;;13.72;66.84
18022;BME280;9136;48.822;7.966;2023-04-15T09:51:59;99405.13;;;13.62;56.17
18022;BME280;9136;48.822;7.966;2023-04-15T09:54:47;99411.53;;;14.02;55.06
18022;BME280;9136;48.822;7.966;2023-04-15T09:57:35;99408.59;;;13.93;52.72
18022;BME280;9136;48.822;7.966;2023-04-15T10:00:23;99408.19;;;14.29;51.61
18022;BME280;9136;48.822;7.966;2023-04-15T10:03:12;99414.13;;;14.89;57.65
18022;BME280;9136;48.822;7.966;2023-04-15T10:06:01;99409.84;;;15.15;57.03
18022;BME280;9136;48.822;7.966;2023-04-15T10:08:53;99425.19;;;15.50;60.90
18022;BME280;9136;48.822;7.966;2023-04-15T10:11:41;99425.03;;;15.12;55.86
18022;BME280;9136;48.822;7.966;2023-04-15T10:14:33;99429.94;;;15.18;58.10
18022;BME280;9136;48.822;7.966;2023-04-15T10:17:21;99441.56;;;15.42;57.66
18022;BME280;9136;48.822;7.966;2023-04-15T10:20:10;99424.66;;;15.72;55.18
18022;BME280;9136;48.822;7.966;2023-04-15T10:23:00;99406.31;;;15.42;54.29
18022;BME280;9136;48.822;7.966;2023-04-15T10:25:51;99424.34;;;15.77;53.74
18022;BME280;9136;48.822;7.966;2023-04-15T10:28:39;99425.03;;;16.06;53.26
18022;BME280;9136;48.822;7.966;2023-04-15T10:31:29;99421.78;;;16.15;48.51
18022;BME280;9136;48.822;7.966;2023-04-15T10:34:17;99436.75;;;15.76;52.28
18022;BME280;9136;48.822;7.966;2023-04-15T10:37:08;99429.72;;;16.15;50.13
18022;BME280;9136;48.822;7.966;2023-04-15T10:39:56;99423.25;;;16.44;45.74
18022;BME280;9136;48.822;7.966;2023-04-15T10:42:45;99452.75;;;16.78;41.80
18022;BME280;9136;48.822;7.966;2023-04-15T10:45:36;99427.69;;;16.95;42.70
18022;BME280;9136;48.822;7.966;2023-04-15T10:48:24;99453.13;;;17.34;39.80
18022;BME280;9136;48.822;7.966;2023-04-15T10:51:12;99428.56;;;16.82;40.86
18022;BME280;9136;48.822;7.966;2023-04-15T10:54:00;99433.78;;;17.08;39.97
18022;BME280;9136;48.822;7.966;2023-04-15T10:56:52;99434.94;;;17.16;43.32
18022;BME280;9136;48.822;7.966;2023-04-15T11:00:03;99439.09;;;17.68;43.98
18022;BME280;9136;48.822;7.966;2023-04-15T11:02:57;99452.69;;;18.23;43.93
18022;BME280;9136;48.822;7.966;2023-04-15T11:05:50;99441.50;;;18.42;42.43
18022;BME280;9136;48.822;7.966;2023-04-15T11:08:55;99452.06;;;18.77;41.07
18022;BME280;9136;48.822;7.966;2023-04-15T11:12:04;99445.16;;;18.97;41.07
18022;BME280;9136;48.822;7.966;2023-04-15T11:14:55;99460.66;;;19.14;37.90
18022;BME280;9136;48.822;7.966;2023-04-15T11:17:45;99452.34;;;19.62;40.61
18022;BME280;9136;48.822;7.966;2023-04-15T11:20:33;99451.06;;;19.34;36.03
18022;BME280;9136;48.822;7.966;2023-04-15T11:23:27;99473.03;;;19.47;36.67
18022;BME280;9136;48.822;7.966;2023-04-15T11:26:16;99478.88;;;19.41;36.04
18022;BME280;9136;48.822;7.966;2023-04-15T11:29:04;99479.97;;;19.61;38.43
18022;BME280;9136;48.822;7.966;2023-04-15T11:31:52;99462.56;;;19.78;38.52
18022;BME280;9136;48.822;7.966;2023-04-15T11:34:44;99484.47;;;19.27;37.17
18022;BME280;9136;48.822;7.966;2023-04-15T11:37:33;99465.22;;;18.56;38.58
18022;BME280;9136;48.822;7.966;2023-04-15T11:40:23;99475.44;;;18.84;39.36
18022;BME280;9136;48.822;7.966;2023-04-15T11:43:14;99470.94;;;18.85;38.63
18022;BME280;9136;48.822;7.966;2023-04-15T11:46:02;99475.91;;;19.12;37.29
18022;BME280;9136;48.822;7.966;2023-04-15T11:48:50;99485.44;;;19.14;39.10
18022;BME280;9136;48.822;7.966;2023-04-15T11:51:40;99498.16;;;19.33;37.72
18022;BME280;9136;48.822;7.966;2023-04-15T11:54:30;99467.91;;;19.12;38.28
18022;BME280;9136;48.822;7.966;2023-04-15T11:57:20;99473.47;;;20.07;37.29
18022;BME280;9136;48.822;7.966;2023-04-15T12:00:09;99489.72;;;20.24;39.05
18022;BME280;9136;48.822;7.966;2023-04-15T12:03:11;99478.75;;;19.86;38.45
18022;BME280;9136;48.822;7.966;2023-04-15T12:06:12;99481.72;;;20.87;36.82
18022;BME280;9136;48.822;7.966;2023-04-15T12:09:10;99499.19;;;22.96;34.70
18022;BME280;9136;48.822;7.966;2023-04-15T12:11:58;99494.88;;;22.75;34.70
18022;BME280;9136;48.822;7.966;2023-04-15T12:14:46;99501.53;;;21.65;37.08
18022;BME280;9136;48.822;7.966;2023-04-15T12:17:34;99484.91;;;20.81;37.00
18022;BME280;9136;48.822;7.966;2023-04-15T12:20:24;99494.22;;;20.24;38.94
18022;BME280;9136;48.822;7.966;2023-04-15T12:23:12;99499.09;;;20.81;39.99
18022;BME280;9136;48.822;7.966;2023-04-15T12:26:06;99509.69;;;20.93;37.16
18022;BME280;9136;48.822;7.966;2023-04-15T12:28:54;99504.47;;;20.40;35.83
18022;BME280;9136;48.822;7.966;2023-04-15T12:31:47;99502.84;;;20.27;36.33
18022;BME280;9136;48.822;7.966;2023-04-15T12:34:37;99521.44;;;20.39;37.29
18022;BME280;9136;48.822;7.966;2023-04-15T12:37:25;99524.50;;;19.59;37.96
18022;BME280;9136;48.822;7.966;2023-04-15T12:40:13;99509.75;;;17.95;41.69
18022;BME280;9136;48.822;7.966;2023-04-15T12:43:04;99515.28;;;17.31;42.33
18022;BME280;9136;48.822;7.966;2023-04-15T12:45:52;99531.63;;;17.25;42.61
18022;BME280;9136;48.822;7.966;2023-04-15T12:48:39;99537.59;;;17.29;42.54
18022;BME280;9136;48.822;7.966;2023-04-15T12:51:27;99519.88;;;17.53;43.22
18022;BME280;9136;48.822;7.966;2023-04-15T12:54:19;99543.00;;;18.24;42.81
18022;BME280;9136;48.822;7.966;2023-04-15T12:57:07;99558.63;;;18.75;38.67
18022;BME280;9136;48.822;7.966;2023-04-15T12:59:56;99550.53;;;19.44;38.19
18022;BME280;9136;48.822;7.966;2023-04-15T13:02:45;99563.53;;;19.60;35.96
18022;BME280;9136;48.822;7.966;2023-04-15T13:05:32;99552.09;;;19.47;35.17
18022;BME280;9136;48.822;7.966;2023-04-15T13:08:22;99548.25;;;20.37;36.60
18022;BME280;9136;48.822;7.966;2023-04-15T13:11:10;99552.13;;;21.17;35.21
18022;BME280;9136;48.822;7.966;2023-04-15T13:14:00;99572.00;;;21.24;36.36
18022;BME280;9136;48.822;7.966;2023-04-15T13:16:49;99555.69;;;20.54;38.45
18022;BME280;9136;48.822;7.966;2023-04-15T13:19:37;99547.50;;;19.49;39.42
18022;BME280;9136;48.822;7.966;2023-04-15T13:22:25;99568.44;;;18.51;38.83
18022;BME280;9136;48.822;7.966;2023-04-15T13:25:13;99550.53;;;17.33;38.65
18022;BME280;9136;48.822;7.966;2023-04-15T13:28:01;99553.66;;;16.89;43.02
18022;BME280;9136;48.822;7.966;2023-04-15T13:30:49;99586.81;;;16.69;43.42
18022;BME280;9136;48.822;7.966;2023-04-15T13:33:38;99562.97;;;16.29;41.53
18022;BME280;9136;48.822;7.966;2023-04-15T13:36:26;99576.63;;;16.63;41.25
18022;BME280;9136;48.822;7.966;2023-04-15T13:39:14;99565.41;;;17.23;43.75
18022;BME280;9136;48.822;7.966;2023-04-15T13:42:02;99573.75;;;18.16;44.76
18022;BME280;9136;48.822;7.966;2023-04-15T13:44:50;99584.22;;;18.06;41.57
18022;BME280;9136;48.822;7.966;2023-04-15T13:47:39;99590.44;;;18.18;40.99
18022;BME280;9136;48.822;7.966;2023-04-15T13:50:28;99582.53;;;19.33;38.20
18022;BME280;9136;48.822;7.966;2023-04-15T13:53:16;99575.88;;;20.04;36.24
18022;BME280;9136;48.822;7.966;2023-04-15T13:56:05;99597.47;;;20.65;36.16
18022;BME280;9136;48.822;7.966;2023-04-15T13:58:53;99579.50;;;19.60;35.07
18022;BME280;9136;48.822;7.966;2023-04-15T14:01:44;99572.22;;;19.28;38.64
18022;BME280;9136;48.822;7.966;2023-04-15T14:04:31;99596.31;;;19.04;36.63
18022;BME280;9136;48.822;7.966;2023-04-15T14:07:21;99601.63;;;19.27;39.73
18022;BME280;9136;48.822;7.966;2023-04-15T14:10:09;99595.06;;;18.62;39.47
18022;BME280;9136;48.822;7.966;2023-04-15T14:12:58;99589.59;;;18.52;37.84
18022;BME280;9136;48.822;7.966;2023-04-15T14:15:46;99598.88;;;18.36;38.90
18022;BME280;9136;48.822;7.966;2023-04-15T14:18:34;99617.44;;;18.24;38.70
18022;BME280;9136;48.822;7.966;2023-04-15T14:21:23;99615.28;;;17.43;39.34
18022;BME280;9136;48.822;7.966;2023-04-15T14:24:13;99608.06;;;17.07;39.73
18022;BME280;9136;48.822;7.966;2023-04-15T14:27:04;99599.16;;;16.70;40.30
18022;BME280;9136;48.822;7.966;2023-04-15T14:29:53;99613.53;;;16.53;39.94
18022;BME280;9136;48.822;7.966;2023-04-15T14:32:43;99628.09;;;16.34;40.10
18022;BME280;9136;48.822;7.966;2023-04-15T14:35:30;99621.00;;;16.07;41.16
18022;BME280;9136;48.822;7.966;2023-04-15T14:38:18;99616.25;;;15.85;41.20
18022;BME280;9136;48.822;7.966;2023-04-15T14:41:09;99646.31;;;15.70;41.64
18022;BME280;9136;48.822;7.966;2023-04-15T14:43:57;99625.16;;;15.56;42.40
18022;BME280;9136;48.822;7.966;2023-04-15T14:46:45;99631.94;;;15.60;41.66
18022;BME280;9136;48.822;7.966;2023-04-15T14:49:33;99635.72;;;15.56;42.69
18022;BME280;9136;48.822;7.966;2023-04-15T14:52:21;99641.69;;;15.59;42.63
18022;BME280;9136;48.822;7.966;2023-04-15T14:55:09;99639.13;;;15.58;42.15
18022;BME280;9136;48.822;7.966;2023-04-15T14:57:59;99656.44;;;15.49;42.40
18022;BME280;9136;48.822;7.966;2023-04-15T15:00:47;99663.91;;;15.57;42.07
18022;BME280;9136;48.822;7.966;2023-04-15T15:03:35;99641.78;;;15.58;42.25
18022;BME280;9136;48.822;7.966;2023-04-15T15:06:23;99653.50;;;15.82;43.68
18022;BME280;9136;48.822;7.966;2023-04-15T15:09:11;99654.38;;;15.83;46.44
18022;BME280;9136;48.822;7.966;2023-04-15T15:11:59;99665.59;;;15.58;47.84
18022;BME280;9136;48.822;7.966;2023-04-15T15:14:48;99660.97;;;15.33;50.89
18022;BME280;9136;48.822;7.966;2023-04-15T15:17:36;99690.31;;;15.14;52.31
18022;BME280;9136;48.822;7.966;2023-04-15T15:20:24;99690.00;;;14.90;50.15
18022;BME280;9136;48.822;7.966;2023-04-15T15:23:13;99674.63;;;14.67;53.62
18022;BME280;9136;48.822;7.966;2023-04-15T15:26:00;99684.88;;;14.57;55.11
18022;BME280;9136;48.822;7.966;2023-04-15T15:28:48;99688.41;;;14.57;54.39
18022;BME280;9136;48.822;7.966;2023-04-15T15:31:38;99675.88;;;14.29;54.35
18022;BME280;9136;48.822;7.966;2023-04-15T15:34:26;99679.03;;;14.20;54.64
18022;BME280;9136;48.822;7.966;2023-04-15T15:37:14;99690.69;;;14.32;56.29
18022;BME280;9136;48.822;7.966;2023-04-15T15:40:03;99687.91;;;14.19;56.43
18022;BME280;9136;48.822;7.966;2023-04-15T15:42:51;99709.09;;;14.18;56.47
18022;BME280;9136;48.822;7.966;2023-04-15T15:45:39;99690.63;;;14.02;60.08
18022;BME280;9136;48.822;7.966;2023-04-15T15:48:28;99708.31;;;14.16;58.84
18022;BME280;9136;48.822;7.966;2023-04-15T15:51:17;99706.22;;;14.22;59.40
18022;BME280;9136;48.822;7.966;2023-04-15T15:54:05;99712.16;;;14.26;58.19
18022;BME280;9136;48.822;7.966;2023-04-15T15:56:53;99739.53;;;14.41;57.58
18022;BME280;9136;48.822;7.966;2023-04-15T15:59:42;99747.47;;;14.41;54.26
18022;BME280;9136;48.822;7.966;2023-04-15T16:02:30;99744.28;;;14.34;56.50
18022;BME280;9136;48.822;7.966;2023-04-15T16:05:20;99755.97;;;14.30;54.48
18022;BME280;9136;48.822;7.966;2023-04-15T16:08:07;99750.50;;;14.17;59.37
18022;BME280;9136;48.822;7.966;2023-04-15T16:10:56;99765.75;;;14.12;55.52
18022;BME280;9136;48.822;7.966;2023-04-15T16:13:43;99760.72;;;13.92;54.71
18022;BME280;9136;48.822;7.966;2023-04-15T16:16:31;99772.78;;;13.80;57.19
18022;BME280;9136;48.822;7.966;2023-04-15T16:19:20;99763.09;;;13.63;58.98
18022;BME280;9136;48.822;7.966;2023-04-15T16:22:09;99768.41;;;13.46;54.81
18022;BME280;9136;48.822;7.966;2023-04-15T16:24:57;99783.59;;;13.41;58.44
18022;BME280;9136;48.822;7.966;2023-04-15T16:27:46;99790.16;;;13.34;59.32
18022;BME280;9136;48.822;7.966;2023-04-15T16:30:34;99807.69;;;13.35;61.49
18022;BME280;9136;48.822;7.966;2023-04-15T16:33:23;99809.47;;;13.34;56.67
18022;BME280;9136;48.822;7.966;2023-04-15T16:36:11;99803.84;;;13.40;53.06
18022;BME280;9136;48.822;7.966;2023-04-15T16:39:00;99801.47;;;13.36;58.72
18022;BME280;9136;48.822;7.966;2023-04-15T16:41:48;99808.31;;;13.23;55.94
18022;BME280;9136;48.822;7.966;2023-04-15T16:44:35;99785.97;;;13.11;55.66
18022;BME280;9136;48.822;7.966;2023-04-15T16:47:23;99798.56;;;13.06;60.78
18022;BME280;9136;48.822;7.966;2023-04-15T16:50:11;99807.47;;;13.03;59.83
18022;BME280;9136;48.822;7.966;2023-04-15T16:52:59;99809.75;;;12.92;60.21
18022;BME280;9136;48.822;7.966;2023-04-15T16:55:48;99826.50;;;12.91;60.84
18022;BME280;9136;48.822;7.966;2023-04-15T16:58:36;99854.38;;;12.97;62.88
18022;BME280;9136;48.822;7.966;2023-04-15T17:01:29;99856.38;;;12.92;61.06
18022;BME280;9136;48.822;7.966;2023-04-15T17:04:17;99856.59;;;12.87;61.89
18022;BME280;9136;48.822;7.966;2023-04-15T17:07:05;99857.81;;;12.61;73.87
18022;BME280;9136;48.822;7.966;2023-04-15T17:09:54;99888.50;;;12.62;79.64
18022;BME280;9136;48.822;7.966;2023-04-15T17:12:43;99865.22;;;12.34;86.97
18022;BME280;9136;48.822;7.966;2023-04-15T17:15:31;99879.47;;;12.30;92.43
18022;BME280;9136;48.822;7.966;2023-04-15T17:18:19;99873.47;;;12.08;96.50
18022;BME280;9136;48.822;7.966;2023-04-15T17:21:07;99878.06;;;12.02;95.93
18022;BME280;9136;48.822;7.966;2023-04-15T17:23:55;99897.25;;;12.04;91.89
18022;BME280;9136;48.822;7.966;2023-04-15T17:26:42;99922.63;;;12.07;95.54
18022;BME280;9136;48.822;7.966;2023-04-15T17:29:33;99910.81;;;11.95;100.00
18022;BME280;9136;48.822;7.966;2023-04-15T17:32:21;99928.28;;;11.98;100.00
18022;BME280;9136;48.822;7.966;2023-04-15T17:35:09;99944.13;;;11.96;100.00
18022;BME280;9136;48.822;7.966;2023-04-15T17:37:57;99935.84;;;11.85;100.00
18022;BME280;9136;48.822;7.966;2023-04-15T17:40:45;99924.63;;;11.60;100.00
18022;BME280;9136;48.822;7.966;2023-04-15T17:43:33;99931.81;;;11.55;100.00
18022;BME280;9136;48.822;7.966;2023-04-15T17:46:22;99962.94;;;11.65;100.00
18022;BME280;9136;48.822;7.966;2023-04-15T17:49:10;99958.44;;;11.47;100.00
18022;BME280;9136;48.822;7.966;2023-04-15T17:51:59;99963.41;;;11.33;100.00
18022;BME280;9136;48.822;7.966;2023-04-15T17:54:47;99963.22;;;11.15;100.00
18022;BME280;9136;48.822;7.966;2023-04-15T17:57:35;99995.03;;;11.08;100.00
18022;BME280;9136;48.822;7.966;2023-04-15T18:00:23;100006.81;;;10.98;100.00
18022;BME280;9136;48.822;7.966;2023-04-15T18:03:13;99979.88;;;10.69;100.00
18022;BME280;9136;48.822;7.966;2023-04-15T18:06:01;100007.25;;;10.64;100.00
18022;BME280;9136;48.822;7.966;2023-04-15T18:08:50;100016.25;;;10.56;100.00
18022;BME280;9136;48.822;7.966;2023-04-15T18:11:38;99991.59;;;10.36;100.00
18022;BME280;9136;48.822;7.966;2023-04-15T18:14:29;100016.84;;;10.40;100.00
18022;BME280;9136;48.822;7.966;2023-04-15T18:17:17;100021.16;;;10.41;100.00
18022;BME280;9136;48.822;7.966;2023-04-15T18:20:07;100016.34;;;10.28;100.00
18022;BME280;9136;48.822;7.966;2023-04-15T18:22:55;100042.47;;;10.33;100.00
18022;BME280;9136;48.822;7.966;2023-04-15T18:25:43;100041.44;;;10.37;100.00
18022;BME280;9136;48.822;7.966;2023-04-15T18:28:31;100036.91;;;10.16;100.00
18022;BME280;9136;48.822;7.966;2023-04-15T18:31:19;100056.00;;;10.19;100.00
18022;BME280;9136;48.822;7.966;2023-04-15T18:34:06;100044.22;;;10.06;100.00
18022;BME280;9136;48.822;7.966;2023-04-15T18:36:56;100064.25;;;10.09;100.00
18022;BME280;9136;48.822;7.966;2023-04-15T18:39:44;100062.03;;;9.96;100.00
18022;BME280;9136;48.822;7.966;2023-04-15T18:42:32;100069.34;;;9.87;100.00
18022;BME280;9136;48.822;7.966;2023-04-15T18:45:19;100086.63;;;9.92;100.00
18022;BME280;9136;48.822;7.966;2023-04-15T18:48:08;100073.16;;;9.77;100.00
18022;BME280;9136;48.822;7.966;2023-04-15T18:50:56;100106.09;;;9.87;100.00
18022;BME280;9136;48.822;7.966;2023-04-15T18:53:45;100073.69;;;9.60;100.00
18022;BME280;9136;48.822;7.966;2023-04-15T18:56:33;100116.19;;;9.71;100.00
18022;BME280;9136;48.822;7.966;2023-04-15T18:59:21;100104.19;;;9.62;100.00
18022;BME280;9136;48.822;7.966;2023-04-15T19:02:09;100121.31;;;9.74;100.00
18022;BME280;9136;48.822;7.966;2023-04-15T19:04:57;100095.53;;;9.60;100.00
18022;BME280;9136;48.822;7.966;2023-04-15T19:07:46;100109.50;;;9.61;100.00
18022;BME280;9136;48.822;7.966;2023-04-15T19:10:36;100145.78;;;9.74;100.00
18022;BME280;9136;48.822;7.966;2023-04-15T19:13:24;100134.91;;;9.59;100.00
18022;BME280;9136;48.822;7.966;2023-04-15T19:16:12;100137.97;;;9.73;100.00
18022;BME280;9136;48.822;7.966;2023-04-15T19:19:00;100117.38;;;9.61;100.00
18022;BME280;9136;48.822;7.966;2023-04-15T19:21:48;100149.41;;;9.70;100.00
18022;BME280;9136;48.822;7.966;2023-04-15T19:24:36;100130.63;;;9.56;100.00
18022;BME280;9136;48.822;7.966;2023-04-15T19:27:26;100145.50;;;9.56;100.00
18022;BME280;9136;48.822;7.966;2023-04-15T19:30:14;100145.81;;;9.45;100.00
18022;BME280;9136;48.822;7.966;2023-04-15T19:33:02;100137.28;;;9.38;100.00
18022;BME280;9136;48.822;7.966;2023-04-15T19:35:50;100152.63;;;9.51;100.00
18022;BME280;9136;48.822;7.966;2023-04-15T19:38:38;100150.88;;;9.51;100.00
18022;BME280;9136;48.822;7.966;2023-04-15T19:41:25;100166.44;;;9.57;100.00
18022;BME280;9136;48.822;7.966;2023-04-15T19:44:15;100156.06;;;9.53;100.00
18022;BME280;9136;48.822;7.966;2023-04-15T19:47:03;100169.13;;;9.54;100.00
18022;BME280;9136;48.822;7.966;2023-04-15T19:49:50;100157.03;;;9.50;100.00